createdAt,value
2017-10-03T00:00:42.956Z,94.8
2017-10-03T00:01:42.128Z,94.9
2017-10-03T00:02:12.736Z,94.9
2017-10-03T00:02:43.351Z,94.9
2017-10-03T00:03:40.515Z,94.9
2017-10-03T00:05:38.826Z,94.9
2017-10-03T00:06:38.257Z,94.6
2017-10-03T00:07:37.558Z,94.4
2017-10-03T00:08:36.617Z,94.2
2017-10-03T00:09:35.797Z,94.4
2017-10-03T00:10:34.971Z,94.4
2017-10-03T00:11:34.144Z,94.5
2017-10-03T00:13:32.207Z,94.5
2017-10-03T00:14:31.633Z,94.1
2017-10-03T00:15:30.938Z,93.8
2017-10-03T00:16:30.358Z,93.5
2017-10-03T00:17:29.156Z,93.8
2017-10-03T00:18:28.714Z,94.1
2017-10-03T00:19:28.019Z,94.3
2017-10-03T00:20:27.069Z,94.4
2017-10-03T00:21:25.876Z,94.6
2017-10-03T00:23:24.568Z,94.7
2017-10-03T00:24:23.622Z,94.8
2017-10-03T00:25:22.919Z,94.9
2017-10-03T00:26:21.974Z,95
2017-10-03T00:27:21.167Z,95.1
2017-10-03T00:28:20.599Z,95
2017-10-03T00:29:19.279Z,95
2017-10-03T00:30:18.715Z,95.2
2017-10-03T00:31:18.151Z,95.4
2017-10-03T00:32:16.963Z,95.6
2017-10-03T00:33:16.388Z,95.6
2017-10-03T00:34:15.568Z,95.6
2017-10-03T00:35:14.872Z,95.7
2017-10-03T00:36:13.827Z,95.8
2017-10-03T00:37:13.381Z,95.7
2017-10-03T00:38:11.927Z,95.4
2017-10-03T00:39:11.366Z,95.6
2017-10-03T00:41:09.798Z,95.8
2017-10-03T00:42:09.220Z,95.9
2017-10-03T00:44:07.528Z,95.9
2017-10-03T00:45:06.325Z,95.9
2017-10-03T00:46:05.507Z,96.1
2017-10-03T00:47:04.681Z,96
2017-10-03T00:48:03.994Z,96.2
2017-10-03T00:49:03.173Z,96.2
2017-10-03T00:50:02.471Z,96.3
2017-10-03T00:51:01.773Z,96.3
2017-10-03T00:52:59.962Z,96.5
2017-10-03T00:53:59.012Z,96.5
2017-10-03T00:54:29.374Z,96.5
2017-10-03T00:54:59.862Z,96.6
2017-10-03T00:55:30.601Z,96.6
2017-10-03T00:56:00.837Z,96.7
2017-10-03T00:56:56.742Z,96.8
2017-10-03T00:58:54.939Z,96.8
2017-10-03T00:59:53.868Z,96.9
2017-10-03T01:00:53.412Z,97
2017-10-03T01:01:52.715Z,97.1
2017-10-03T01:02:51.764Z,97.1
2017-10-03T01:03:50.563Z,97.1
2017-10-03T01:04:49.737Z,97.2
2017-10-03T01:05:49.158Z,97.1
2017-10-03T01:06:48.703Z,97.1
2017-10-03T01:07:47.248Z,97
2017-10-03T01:08:46.803Z,97
2017-10-03T01:09:46.109Z,97
2017-10-03T01:10:45.029Z,97
2017-10-03T01:11:44.331Z,97.1
2017-10-03T01:12:43.254Z,96.9
2017-10-03T01:13:42.430Z,96.9
2017-10-03T01:14:41.477Z,97
2017-10-03T01:16:40.161Z,97
2017-10-03T01:17:38.956Z,97.1
2017-10-03T01:18:38.133Z,97.2
2017-10-03T01:19:37.178Z,97.2
2017-10-03T01:20:36.979Z,97.3
2017-10-03T01:21:36.033Z,97.4
2017-10-03T01:22:35.345Z,97.4
2017-10-03T01:23:34.277Z,97.4
2017-10-03T01:24:32.949Z,97.5
2017-10-03T01:25:32.753Z,97.5
2017-10-03T01:26:31.680Z,97.6
2017-10-03T01:27:31.116Z,97.6
2017-10-03T01:28:29.916Z,97.7
2017-10-03T01:29:29.093Z,97.7
2017-10-03T01:30:28.270Z,97.7
2017-10-03T01:31:27.570Z,97.7
2017-10-03T01:32:26.746Z,97.8
2017-10-03T01:33:25.797Z,97.8
2017-10-03T01:34:25.220Z,97.8
2017-10-03T01:35:23.895Z,97.9
2017-10-03T01:36:23.199Z,98
2017-10-03T01:37:22.499Z,98
2017-10-03T01:38:21.926Z,98
2017-10-03T01:39:21.227Z,98
2017-10-03T01:40:20.143Z,98
2017-10-03T01:41:19.441Z,98.1
2017-10-03T01:42:18.367Z,98.1
2017-10-03T01:43:17.787Z,98.1
2017-10-03T01:44:16.589Z,98.2
2017-10-03T01:45:15.764Z,98.2
2017-10-03T01:46:15.186Z,98.2
2017-10-03T01:47:14.487Z,98.3
2017-10-03T01:48:13.784Z,98.4
2017-10-03T01:49:12.960Z,98.4
2017-10-03T01:50:11.637Z,98.4
2017-10-03T01:53:09.339Z,98.5
2017-10-03T01:54:08.512Z,98.6
2017-10-03T01:55:07.568Z,98.6
2017-10-03T01:56:06.750Z,98.7
2017-10-03T01:57:05.919Z,98.7
2017-10-03T01:58:04.967Z,98.7
2017-10-03T01:59:04.267Z,98.8
2017-10-03T02:00:03.317Z,98.8
2017-10-03T02:01:02.502Z,98.8
2017-10-03T02:02:01.807Z,98.8
2017-10-03T02:03:00.866Z,98.9
2017-10-03T02:04:00.331Z,98.9
2017-10-03T02:04:58.997Z,98.9
2017-10-03T02:05:58.674Z,98.9
2017-10-03T02:06:57.466Z,98.9
2017-10-03T02:07:56.643Z,98.9
2017-10-03T02:09:55.328Z,99
2017-10-03T02:10:54.133Z,99
2017-10-03T02:11:53.309Z,99
2017-10-03T02:12:52.621Z,99
2017-10-03T02:13:51.793Z,99.1
2017-10-03T02:14:51.351Z,99.1
2017-10-03T02:15:50.150Z,99.1
2017-10-03T02:16:49.330Z,99.1
2017-10-03T02:17:48.388Z,99.1
2017-10-03T02:18:47.576Z,99.2
2017-10-03T02:19:47.380Z,99.2
2017-10-03T02:20:46.311Z,99.2
2017-10-03T02:21:45.113Z,99.1
2017-10-03T02:22:44.543Z,99.1
2017-10-03T02:23:43.716Z,99.1
2017-10-03T02:24:43.017Z,99.1
2017-10-03T02:25:42.056Z,99.1
2017-10-03T02:26:40.736Z,99.1
2017-10-03T02:27:40.169Z,99.1
2017-10-03T02:28:39.471Z,99.1
2017-10-03T02:29:38.646Z,99.1
2017-10-03T02:30:37.697Z,99.2
2017-10-03T02:31:37.008Z,99.2
2017-10-03T02:32:36.061Z,99.2
2017-10-03T02:33:35.613Z,99.2
2017-10-03T02:34:34.430Z,99.2
2017-10-03T02:35:33.608Z,99.2
2017-10-03T02:36:04.231Z,99.2
2017-10-03T02:37:31.847Z,99.3
2017-10-03T02:38:31.168Z,99.3
2017-10-03T02:40:29.481Z,99.3
2017-10-03T02:41:28.905Z,99.3
2017-10-03T02:42:27.830Z,99.4
2017-10-03T02:43:27.134Z,99.4
2017-10-03T02:44:26.449Z,99.4
2017-10-03T02:45:25.133Z,99.4
2017-10-03T02:46:24.441Z,99.4
2017-10-03T02:47:23.746Z,99.4
2017-10-03T02:48:23.064Z,99.5
2017-10-03T02:49:22.383Z,99.5
2017-10-03T02:50:21.442Z,99.5
2017-10-03T02:51:20.116Z,99.5
2017-10-03T02:52:19.798Z,99.5
2017-10-03T02:53:18.973Z,99.5
2017-10-03T02:54:17.785Z,99.5
2017-10-03T02:55:17.230Z,99.5
2017-10-03T02:56:16.155Z,99.5
2017-10-03T02:57:15.220Z,99.5
2017-10-03T02:58:14.525Z,99.5
2017-10-03T02:59:13.833Z,99.6
2017-10-03T03:00:13.146Z,99.6
2017-10-03T03:01:12.326Z,99.6
2017-10-03T03:02:10.880Z,99.6
2017-10-03T03:03:10.309Z,99.6
2017-10-03T03:04:09.610Z,99.6
2017-10-03T03:05:08.916Z,99.7
2017-10-03T03:06:07.961Z,99.7
2017-10-03T03:07:07.015Z,99.7
2017-10-03T03:08:06.319Z,99.7
2017-10-03T03:09:05.376Z,99.7
2017-10-03T03:10:04.560Z,99.7
2017-10-03T03:11:03.990Z,99.7
2017-10-03T03:12:03.294Z,99.8
2017-10-03T03:13:02.229Z,99.8
2017-10-03T03:14:01.412Z,99.8
2017-10-03T03:15:00.340Z,99.8
2017-10-03T03:15:59.769Z,99.8
2017-10-03T03:16:58.456Z,99.9
2017-10-03T03:17:58.404Z,99.9
2017-10-03T03:18:56.958Z,99.9
2017-10-03T03:20:55.642Z,100
2017-10-03T03:21:54.692Z,100
2017-10-03T03:22:53.745Z,100
2017-10-03T03:23:53.053Z,100.1
2017-10-03T03:25:51.242Z,100.1
2017-10-03T03:26:50.302Z,100.1
2017-10-03T03:27:49.857Z,100.1
2017-10-03T03:28:48.914Z,100.2
2017-10-03T03:29:48.352Z,100.2
2017-10-03T03:30:47.155Z,100.2
2017-10-03T03:31:46.593Z,100.2
2017-10-03T03:32:45.517Z,100.3
2017-10-03T03:33:45.080Z,100.3
2017-10-03T03:34:43.754Z,100.3
2017-10-03T03:35:43.063Z,100.3
2017-10-03T03:36:42.371Z,100.3
2017-10-03T03:37:41.061Z,100.3
2017-10-03T03:38:40.499Z,100.3
2017-10-03T03:39:39.806Z,100.3
2017-10-03T03:40:39.124Z,100.4
2017-10-03T03:41:38.020Z,100.4
2017-10-03T03:43:36.329Z,100.4
2017-10-03T03:44:35.518Z,100.4
2017-10-03T03:45:34.821Z,100.4
2017-10-03T03:46:34.131Z,100.5
2017-10-03T03:47:32.932Z,100.5
2017-10-03T03:48:32.238Z,100.5
2017-10-03T03:49:31.293Z,100.5
2017-10-03T03:50:30.479Z,100.5
2017-10-03T03:51:29.784Z,100.5
2017-10-03T03:52:29.213Z,100.5
2017-10-03T03:52:59.208Z,100.5
2017-10-03T03:53:29.830Z,100.6
2017-10-03T03:54:27.373Z,100.6
2017-10-03T03:55:26.681Z,100.6
2017-10-03T03:56:25.483Z,100.6
2017-10-03T03:57:24.805Z,100.6
2017-10-03T03:58:24.100Z,100.6
2017-10-03T03:59:23.025Z,100.6
2017-10-03T04:00:22.076Z,100.7
2017-10-03T04:01:21.762Z,100.7
2017-10-03T04:02:20.827Z,100.7
2017-10-03T04:03:20.010Z,100.7
2017-10-03T04:04:19.193Z,100.7
2017-10-03T04:05:18.500Z,100.7
2017-10-03T04:06:17.170Z,100.7
2017-10-03T04:07:16.731Z,100.7
2017-10-03T04:08:16.044Z,100.8
2017-10-03T04:09:14.853Z,100.8
2017-10-03T04:09:45.092Z,100.8
2017-10-03T04:10:15.582Z,100.8
2017-10-03T04:10:46.202Z,100.8
2017-10-03T04:11:16.440Z,100.8
2017-10-03T04:11:47.183Z,100.8
2017-10-03T04:12:17.829Z,100.8
2017-10-03T04:12:48.189Z,100.8
2017-10-03T04:14:10.641Z,100.8
2017-10-03T04:15:09.948Z,100.8
2017-10-03T04:16:09.381Z,100.8
2017-10-03T04:17:08.183Z,100.8
2017-10-03T04:18:07.236Z,100.8
2017-10-03T04:20:05.798Z,100.9
2017-10-03T04:21:04.847Z,100.9
2017-10-03T04:22:04.148Z,100.9
2017-10-03T04:23:03.331Z,100.9
2017-10-03T04:24:02.387Z,100.9
2017-10-03T04:25:01.562Z,100.9
2017-10-03T04:26:59.876Z,100.9
2017-10-03T04:27:59.311Z,100.9
2017-10-03T04:28:58.360Z,100.9
2017-10-03T04:29:57.799Z,101
2017-10-03T04:30:56.851Z,101
2017-10-03T04:31:56.029Z,101
2017-10-03T04:32:55.213Z,101
2017-10-03T04:34:53.148Z,101
2017-10-03T04:35:52.594Z,101
2017-10-03T04:36:51.393Z,101
2017-10-03T04:37:50.581Z,101
2017-10-03T04:38:50.015Z,101
2017-10-03T04:39:49.065Z,101
2017-10-03T04:40:48.371Z,101
2017-10-03T04:41:47.677Z,101
2017-10-03T04:42:46.862Z,101.1
2017-10-03T04:43:46.166Z,101.1
2017-10-03T04:44:44.972Z,101.1
2017-10-03T04:45:44.529Z,101.1
2017-10-03T04:46:43.202Z,101.1
2017-10-03T04:47:42.508Z,101.1
2017-10-03T04:48:41.938Z,101.1
2017-10-03T04:49:40.489Z,101.1
2017-10-03T04:50:40.172Z,101.1
2017-10-03T04:51:39.233Z,101.2
2017-10-03T04:52:38.533Z,101.2
2017-10-03T04:53:37.465Z,101.2
2017-10-03T04:54:37.023Z,101.2
2017-10-03T04:55:35.951Z,101.2
2017-10-03T04:56:35.263Z,101.2
2017-10-03T04:57:33.951Z,101.2
2017-10-03T04:58:33.510Z,101.2
2017-10-03T04:59:32.696Z,101.2
2017-10-03T05:01:30.763Z,101.3
2017-10-03T05:02:30.066Z,101.3
2017-10-03T05:03:29.366Z,101.3
2017-10-03T05:04:28.302Z,101.3
2017-10-03T05:05:27.350Z,101.3
2017-10-03T05:06:26.667Z,101.3
2017-10-03T05:07:26.226Z,101.3
2017-10-03T05:08:25.025Z,101.3
2017-10-03T05:09:24.340Z,101.3
2017-10-03T05:10:23.519Z,101.3
2017-10-03T05:11:22.955Z,101.3
2017-10-03T05:12:22.006Z,101.3
2017-10-03T05:13:21.069Z,101.3
2017-10-03T05:14:20.252Z,101.3
2017-10-03T05:15:19.436Z,101.3
2017-10-03T05:16:18.861Z,101.3
2017-10-03T05:17:17.538Z,101.3
2017-10-03T05:19:15.726Z,101.3
2017-10-03T05:20:14.905Z,101.3
2017-10-03T05:21:14.336Z,101.3
2017-10-03T05:22:13.768Z,101.3
2017-10-03T05:23:12.446Z,101.3
2017-10-03T05:24:11.751Z,101.3
2017-10-03T05:25:11.193Z,101.3
2017-10-03T05:26:09.873Z,101.3
2017-10-03T05:27:09.433Z,101.3
2017-10-03T05:28:08.614Z,101.3
2017-10-03T05:29:07.798Z,101.2
2017-10-03T05:30:07.224Z,101.2
2017-10-03T05:31:06.023Z,101.2
2017-10-03T05:32:05.082Z,101.2
2017-10-03T05:33:04.139Z,101.2
2017-10-03T05:34:03.567Z,101.2
2017-10-03T05:35:02.887Z,101.2
2017-10-03T05:36:01.697Z,101.2
2017-10-03T05:37:00.999Z,101.2
2017-10-03T05:38:00.180Z,101.2
2017-10-03T05:38:59.363Z,101.2
2017-10-03T05:39:58.547Z,101.2
2017-10-03T05:40:57.720Z,101.2
2017-10-03T05:41:56.899Z,101.2
2017-10-03T05:42:55.955Z,101.2
2017-10-03T05:43:55.267Z,101.2
2017-10-03T05:44:54.435Z,101.2
2017-10-03T05:45:53.744Z,101.2
2017-10-03T05:46:52.803Z,101.2
2017-10-03T05:47:51.602Z,101.2
2017-10-03T05:48:50.787Z,101.2
2017-10-03T05:49:50.332Z,101.2
2017-10-03T05:50:49.508Z,101.2
2017-10-03T05:51:48.571Z,101.2
2017-10-03T05:52:47.622Z,101.2
2017-10-03T05:53:46.940Z,101.2
2017-10-03T05:54:46.129Z,101.2
2017-10-03T05:55:45.062Z,101.2
2017-10-03T05:56:44.152Z,101.2
2017-10-03T05:57:43.458Z,101.2
2017-10-03T05:58:42.644Z,101.2
2017-10-03T05:59:41.695Z,101.2
2017-10-03T06:00:40.879Z,101.2
2017-10-03T06:01:40.054Z,101.2
2017-10-03T06:02:39.744Z,101.2
2017-10-03T06:03:38.683Z,101.2
2017-10-03T06:04:37.742Z,101.2
2017-10-03T06:05:37.043Z,101.2
2017-10-03T06:06:35.971Z,101.2
2017-10-03T06:07:35.652Z,101.2
2017-10-03T06:08:34.195Z,101.2
2017-10-03T06:09:33.384Z,101.2
2017-10-03T06:10:32.564Z,101.2
2017-10-03T06:11:31.877Z,101.2
2017-10-03T06:12:30.932Z,101.2
2017-10-03T06:13:30.161Z,101.2
2017-10-03T06:14:29.711Z,101.2
2017-10-03T06:15:28.386Z,101.2
2017-10-03T06:16:27.820Z,101.2
2017-10-03T06:17:27.120Z,101.2
2017-10-03T06:18:26.182Z,101.2
2017-10-03T06:19:24.982Z,101.2
2017-10-03T06:20:24.163Z,101.2
2017-10-03T06:21:23.218Z,101.2
2017-10-03T06:22:22.522Z,101.2
2017-10-03T06:23:22.208Z,101.2
2017-10-03T06:24:21.005Z,101.2
2017-10-03T06:25:20.188Z,101.2
2017-10-03T06:26:19.485Z,101.2
2017-10-03T06:27:18.667Z,101.2
2017-10-03T06:28:17.843Z,101.2
2017-10-03T06:29:17.281Z,101.2
2017-10-03T06:29:47.774Z,101.2
2017-10-03T06:30:18.651Z,101.2
2017-10-03T06:31:15.442Z,101.1
2017-10-03T06:32:14.744Z,101.1
2017-10-03T06:33:13.446Z,101.1
2017-10-03T06:34:13.011Z,101.1
2017-10-03T06:35:11.812Z,101.1
2017-10-03T06:36:10.993Z,101.1
2017-10-03T06:37:10.299Z,101.1
2017-10-03T06:38:09.236Z,101.1
2017-10-03T06:39:08.534Z,101.1
2017-10-03T06:40:07.589Z,101.1
2017-10-03T06:41:06.896Z,101.1
2017-10-03T06:42:06.206Z,101.1
2017-10-03T06:44:04.141Z,101.1
2017-10-03T06:45:03.334Z,101.1
2017-10-03T06:46:02.892Z,101
2017-10-03T06:47:02.078Z,101
2017-10-03T06:48:01.259Z,101
2017-10-03T06:49:00.582Z,101
2017-10-03T06:49:59.385Z,101
2017-10-03T06:50:58.810Z,101
2017-10-03T06:51:57.997Z,101
2017-10-03T06:52:57.068Z,101
2017-10-03T06:53:56.007Z,101
2017-10-03T06:54:55.315Z,101
2017-10-03T06:55:54.878Z,101
2017-10-03T06:56:53.560Z,101
2017-10-03T06:57:52.865Z,101
2017-10-03T06:58:52.295Z,100.9
2017-10-03T06:59:51.093Z,100.9
2017-10-03T07:00:50.276Z,100.9
2017-10-03T07:01:49.333Z,100.9
2017-10-03T07:02:48.515Z,100.9
2017-10-03T07:03:47.578Z,100.9
2017-10-03T07:04:46.888Z,100.9
2017-10-03T07:05:46.193Z,100.9
2017-10-03T07:06:45.374Z,100.8
2017-10-03T07:07:44.554Z,100.8
2017-10-03T07:08:43.856Z,100.8
2017-10-03T07:09:42.790Z,100.8
2017-10-03T07:10:42.101Z,100.8
2017-10-03T07:11:41.412Z,100.8
2017-10-03T07:12:40.099Z,100.8
2017-10-03T07:13:39.273Z,100.8
2017-10-03T07:14:38.454Z,100.8
2017-10-03T07:15:37.762Z,100.7
2017-10-03T07:16:37.198Z,100.7
2017-10-03T07:17:36.413Z,100.7
2017-10-03T07:18:35.592Z,100.7
2017-10-03T07:19:34.887Z,100.6
2017-10-03T07:20:33.564Z,100.6
2017-10-03T07:21:32.877Z,100.5
2017-10-03T07:23:31.190Z,100.5
2017-10-03T07:24:30.616Z,100.5
2017-10-03T07:25:29.792Z,100.4
2017-10-03T07:26:28.847Z,100.4
2017-10-03T07:28:27.286Z,100.4
2017-10-03T07:29:26.233Z,100.4
2017-10-03T07:30:25.413Z,100.4
2017-10-03T07:31:24.466Z,100.3
2017-10-03T07:33:23.157Z,100.2
2017-10-03T07:34:22.222Z,100.2
2017-10-03T07:35:21.523Z,100.1
2017-10-03T07:36:20.697Z,100.1
2017-10-03T07:37:19.625Z,100.1
2017-10-03T07:38:18.928Z,100.1
2017-10-03T07:39:17.888Z,100.1
2017-10-03T07:40:17.194Z,100
2017-10-03T07:41:16.492Z,100
2017-10-03T07:42:15.295Z,100
2017-10-03T07:43:14.475Z,100
2017-10-03T07:44:14.036Z,100
2017-10-03T07:45:13.339Z,100
2017-10-03T07:46:12.031Z,100
2017-10-03T07:47:11.341Z,99.9
2017-10-03T07:48:10.523Z,99.9
2017-10-03T07:49:09.450Z,99.8
2017-10-03T07:50:08.630Z,99.8
2017-10-03T07:51:08.437Z,99.7
2017-10-03T07:52:07.237Z,99.8
2017-10-03T07:53:06.586Z,99.7
2017-10-03T07:54:05.794Z,99.7
2017-10-03T07:55:04.854Z,99.7
2017-10-03T07:56:04.162Z,99.7
2017-10-03T07:57:02.960Z,99.7
2017-10-03T07:58:02.270Z,99.6
2017-10-03T07:59:01.827Z,99.6
2017-10-03T08:00:00.768Z,99.6
2017-10-03T08:00:31.265Z,99.6
2017-10-03T08:01:01.892Z,99.6
2017-10-03T08:01:32.645Z,99.6
2017-10-03T08:02:02.513Z,99.5
2017-10-03T08:02:58.172Z,99.5
2017-10-03T08:03:57.469Z,99.5
2017-10-03T08:04:56.527Z,99.5
2017-10-03T08:05:55.583Z,99.5
2017-10-03T08:06:54.634Z,99.4
2017-10-03T08:07:54.070Z,99.4
2017-10-03T08:09:52.631Z,99.4
2017-10-03T08:10:51.562Z,99.4
2017-10-03T08:12:50.257Z,99.5
2017-10-03T08:13:49.190Z,99.4
2017-10-03T08:14:48.374Z,99.4
2017-10-03T08:15:47.554Z,99.3
2017-10-03T08:16:46.732Z,99.3
2017-10-03T08:17:45.798Z,99.3
2017-10-03T08:18:45.207Z,99.3
2017-10-03T08:19:43.882Z,99.3
2017-10-03T08:21:42.561Z,99.3
2017-10-03T08:23:40.873Z,99.3
2017-10-03T08:24:40.050Z,99.3
2017-10-03T08:25:39.241Z,99.3
2017-10-03T08:26:38.791Z,99.2
2017-10-03T08:27:37.848Z,99.2
2017-10-03T08:28:36.648Z,99.1
2017-10-03T08:29:35.839Z,99
2017-10-03T08:31:34.277Z,98.9
2017-10-03T08:32:33.579Z,98.9
2017-10-03T08:34:31.635Z,98.8
2017-10-03T08:35:31.090Z,98.7
2017-10-03T08:36:30.027Z,98.7
2017-10-03T08:37:29.455Z,98.6
2017-10-03T08:38:28.641Z,98.6
2017-10-03T08:40:27.205Z,98.6
2017-10-03T08:41:26.010Z,98.4
2017-10-03T08:42:25.066Z,98.4
2017-10-03T08:43:24.629Z,98.3
2017-10-03T08:45:22.698Z,98.2
2017-10-03T08:46:22.376Z,98.2
2017-10-03T08:47:20.933Z,98
2017-10-03T08:48:20.369Z,98
2017-10-03T08:49:19.431Z,97.9
2017-10-03T08:50:18.493Z,97.9
2017-10-03T08:51:17.802Z,97.8
2017-10-03T08:52:17.355Z,97.7
2017-10-03T08:53:16.408Z,97.7
2017-10-03T08:54:15.476Z,97.6
2017-10-03T08:55:14.657Z,97.5
2017-10-03T08:56:14.088Z,97.4
2017-10-03T08:57:13.023Z,97.4
2017-10-03T08:58:12.339Z,97.3
2017-10-03T08:59:11.013Z,97.2
2017-10-03T09:00:10.442Z,97.2
2017-10-03T09:01:09.997Z,97.1
2017-10-03T09:02:09.053Z,96.8
2017-10-03T09:03:07.986Z,96.7
2017-10-03T09:04:07.575Z,96.6
2017-10-03T09:05:06.257Z,96.6
2017-10-03T09:06:05.441Z,96.6
2017-10-03T09:07:04.996Z,96.6
2017-10-03T09:08:04.052Z,96.3
2017-10-03T09:09:02.984Z,96.2
2017-10-03T09:10:02.541Z,96.1
2017-10-03T09:12:00.610Z,95.6
2017-10-03T09:12:59.789Z,95.5
2017-10-03T09:13:59.098Z,95.5
2017-10-03T09:14:58.395Z,95.5
2017-10-03T09:15:57.704Z,95.4
2017-10-03T09:17:55.769Z,95.3
2017-10-03T09:18:55.072Z,95.4
2017-10-03T09:19:54.503Z,95.4
2017-10-03T09:20:53.437Z,95.3
2017-10-03T09:21:52.363Z,95.3
2017-10-03T09:22:51.542Z,95.3
2017-10-03T09:23:50.976Z,95.1
2017-10-03T09:24:50.152Z,94.9
2017-10-03T09:25:49.457Z,94.8
2017-10-03T09:26:48.642Z,94.9
2017-10-03T09:27:19.138Z,94.9
2017-10-03T09:28:46.748Z,94.5
2017-10-03T09:29:45.931Z,94.6
2017-10-03T09:30:45.236Z,94.6
2017-10-03T09:31:44.416Z,94.6
2017-10-03T09:32:43.606Z,94.6
2017-10-03T09:33:43.039Z,94.2
2017-10-03T09:34:42.093Z,93.9
2017-10-03T09:35:41.399Z,93.7
2017-10-03T09:36:40.461Z,93.5
2017-10-03T09:37:39.883Z,93.4
2017-10-03T09:38:38.805Z,93.1
2017-10-03T09:39:38.114Z,92.4
2017-10-03T09:40:37.426Z,91.7
2017-10-03T09:42:35.481Z,91.7
2017-10-03T09:43:34.784Z,91.4
2017-10-03T09:44:33.974Z,91.3
2017-10-03T09:45:33.407Z,91.4
2017-10-03T09:46:32.456Z,91.3
2017-10-03T09:47:31.636Z,91.3
2017-10-03T09:48:30.949Z,90.8
2017-10-03T09:50:29.265Z,90.8
2017-10-03T09:51:28.449Z,90.6
2017-10-03T09:52:27.503Z,90.6
2017-10-03T09:53:26.803Z,90
2017-10-03T09:54:25.982Z,90
2017-10-03T09:56:24.668Z,88.9
2017-10-03T09:57:23.595Z,88.8
2017-10-03T09:58:22.777Z,88.9
2017-10-03T09:59:22.075Z,89.2
2017-10-03T10:01:20.259Z,89.1
2017-10-03T10:02:19.565Z,89
2017-10-03T10:03:18.865Z,89
2017-10-03T10:04:17.680Z,88.6
2017-10-03T10:05:16.990Z,88.3
2017-10-03T10:06:16.169Z,88.2
2017-10-03T10:07:15.615Z,88.2
2017-10-03T10:08:14.925Z,88.2
2017-10-03T10:10:12.989Z,87.7
2017-10-03T10:12:11.809Z,88
2017-10-03T10:13:10.739Z,87.8
2017-10-03T10:14:10.172Z,88
2017-10-03T10:15:09.348Z,88
2017-10-03T10:16:08.406Z,87.9
2017-10-03T10:17:07.720Z,87.1
2017-10-03T10:17:37.712Z,87.1
2017-10-03T10:18:08.326Z,86.3
2017-10-03T10:18:38.692Z,86.3
2017-10-03T10:19:09.443Z,86.3
2017-10-03T10:19:39.559Z,86.3
2017-10-03T10:20:09.675Z,86.1
2017-10-03T10:20:40.170Z,86.1
2017-10-03T10:21:10.669Z,85.1
2017-10-03T10:21:41.281Z,85.1
2017-10-03T10:23:02.611Z,85.9
2017-10-03T10:24:02.308Z,85.5
2017-10-03T10:25:01.252Z,85.5
2017-10-03T10:26:00.053Z,85.5
2017-10-03T10:27:59.007Z,85
2017-10-03T10:28:58.068Z,84.9
2017-10-03T10:29:57.408Z,84.8
2017-10-03T10:30:56.467Z,85.5
2017-10-03T10:31:55.646Z,85.9
2017-10-03T10:33:54.091Z,85.3
2017-10-03T10:34:53.273Z,84.9
2017-10-03T10:35:52.450Z,85.7
2017-10-03T10:37:51.273Z,85.4
2017-10-03T10:38:50.454Z,85.9
2017-10-03T10:39:49.638Z,85.8
2017-10-03T10:40:48.695Z,84.5
2017-10-03T10:41:48.003Z,83
2017-10-03T10:42:47.300Z,83
2017-10-03T10:43:45.968Z,83
2017-10-03T10:44:45.148Z,83
2017-10-03T10:45:44.458Z,81.5
2017-10-03T10:46:43.768Z,82.6
2017-10-03T10:47:42.949Z,82.8
2017-10-03T10:48:42.132Z,82.7
2017-10-03T10:49:41.686Z,82.3
2017-10-03T10:51:40.120Z,81.4
2017-10-03T10:52:38.923Z,81
2017-10-03T10:53:38.854Z,81
2017-10-03T10:54:37.530Z,79.1
2017-10-03T10:55:36.581Z,80
2017-10-03T10:56:36.014Z,79.3
2017-10-03T10:57:35.441Z,79.4
2017-10-03T10:58:34.241Z,78.8
2017-10-03T10:59:33.803Z,79.6
2017-10-03T11:00:33.103Z,79.6
2017-10-03T11:01:32.286Z,78.9
2017-10-03T11:02:31.593Z,79.1
2017-10-03T11:03:30.773Z,78.1
2017-10-03T11:04:29.833Z,78.3
2017-10-03T11:05:28.888Z,78.1
2017-10-03T11:06:28.448Z,78.1
2017-10-03T11:07:27.749Z,78.8
2017-10-03T11:08:26.683Z,77.9
2017-10-03T11:09:25.862Z,77.2
2017-10-03T11:10:25.173Z,76.8
2017-10-03T11:11:24.852Z,77.5
2017-10-03T11:12:23.910Z,78.4
2017-10-03T11:13:22.715Z,77.7
2017-10-03T11:14:22.278Z,75.1
2017-10-03T11:16:20.464Z,75.9
2017-10-03T11:17:19.523Z,75.6
2017-10-03T11:18:18.971Z,75.6
2017-10-03T11:19:18.439Z,75.8
2017-10-03T11:20:17.490Z,76.5
2017-10-03T11:21:16.542Z,75.2
2017-10-03T11:22:15.597Z,74.9
2017-10-03T11:23:15.285Z,73.9
2017-10-03T11:24:14.213Z,75.1
2017-10-03T11:25:13.777Z,74
2017-10-03T11:26:12.573Z,74.6
2017-10-03T11:27:11.894Z,75.2
2017-10-03T11:28:11.328Z,74.4
2017-10-03T11:29:10.512Z,74.1
2017-10-03T11:30:09.693Z,73.5
2017-10-03T11:31:09.122Z,75.2
2017-10-03T11:32:08.309Z,74.5
2017-10-03T11:33:07.110Z,74.2
2017-10-03T11:34:06.425Z,74.1
2017-10-03T11:35:05.857Z,74.5
2017-10-03T11:36:05.178Z,74.5
2017-10-03T11:37:04.360Z,75.2
2017-10-03T11:38:03.549Z,74.2
2017-10-03T11:39:02.729Z,74.2
2017-10-03T11:40:01.660Z,74.6
2017-10-03T11:41:00.963Z,74.4
2017-10-03T11:42:00.653Z,73.3
2017-10-03T11:42:59.706Z,74
2017-10-03T11:43:59.135Z,76.7
2017-10-03T11:44:58.058Z,79.9
2017-10-03T11:45:57.370Z,82
2017-10-03T11:46:56.424Z,83.4
2017-10-03T11:49:54.124Z,87.3
2017-10-03T11:50:53.179Z,87.5
2017-10-03T11:51:52.741Z,88.6
2017-10-03T11:52:51.926Z,88.9
2017-10-03T11:53:51.109Z,88.9
2017-10-03T11:55:49.547Z,89.4
2017-10-03T11:56:48.604Z,89.8
2017-10-03T11:58:46.923Z,90.1
2017-10-03T12:00:45.612Z,91
2017-10-03T12:02:43.933Z,91.2
2017-10-03T12:04:42.126Z,91.6
2017-10-03T12:05:41.427Z,92.2
2017-10-03T12:06:40.868Z,92.4
2017-10-03T12:07:39.932Z,92.6
2017-10-03T12:08:10.549Z,92.6
2017-10-03T12:11:36.320Z,92.4
2017-10-03T12:13:34.893Z,92.1
2017-10-03T12:14:34.069Z,92.2
2017-10-03T12:15:33.262Z,92.5
2017-10-03T12:17:31.579Z,93.2
2017-10-03T12:18:30.754Z,93.6
2017-10-03T12:20:29.566Z,93.8
2017-10-03T12:24:25.777Z,94
2017-10-03T12:25:25.081Z,94.2
2017-10-03T12:27:23.901Z,94.6
2017-10-03T12:31:20.114Z,94.8
2017-10-03T12:32:19.294Z,95.2
2017-10-03T12:33:18.605Z,95.4
2017-10-03T12:37:15.562Z,95.9
2017-10-03T12:38:14.871Z,96
2017-10-03T12:38:45.117Z,96
2017-10-03T12:39:15.230Z,96
2017-10-03T12:39:45.733Z,96
2017-10-03T12:41:12.215Z,96.3
2017-10-03T12:43:10.792Z,96.5
2017-10-03T12:44:09.969Z,96.5
2017-10-03T12:45:09.021Z,96.6
2017-10-03T12:46:08.204Z,96.8
2017-10-03T12:47:07.509Z,96.8
2017-10-03T12:48:06.815Z,96.9
2017-10-03T12:49:05.905Z,96.9
2017-10-03T12:50:04.834Z,96.9
2017-10-03T12:52:03.699Z,96.9
2017-10-03T12:53:02.381Z,97
2017-10-03T12:54:01.688Z,97
2017-10-03T12:56:00.259Z,96.9
2017-10-03T12:56:59.066Z,97
2017-10-03T12:57:58.753Z,96.9
2017-10-03T12:58:57.682Z,96.7
2017-10-03T12:59:56.858Z,96.5
2017-10-03T13:00:56.157Z,96.3
2017-10-03T13:01:55.341Z,95.7
2017-10-03T13:02:54.275Z,95.3
2017-10-03T13:03:53.582Z,93.9
2017-10-03T13:04:53.178Z,93.9
2017-10-03T13:05:52.239Z,93.9
2017-10-03T13:06:51.549Z,92.8
2017-10-03T13:07:50.603Z,93.2
2017-10-03T13:08:49.914Z,93.2
2017-10-03T13:09:49.103Z,93.1
2017-10-03T13:10:48.408Z,93
2017-10-03T13:11:47.338Z,91.6
2017-10-03T13:12:46.517Z,90.9
2017-10-03T13:13:45.827Z,90.7
2017-10-03T13:14:44.897Z,90.8
2017-10-03T13:15:44.214Z,89.9
2017-10-03T13:16:43.678Z,89.3
2017-10-03T13:17:42.745Z,89.2
2017-10-03T13:18:42.179Z,89.2
2017-10-03T13:19:41.354Z,88.7
2017-10-03T13:20:40.285Z,88.1
2017-10-03T13:21:40.095Z,85.6
2017-10-03T13:22:38.898Z,85.6
2017-10-03T13:23:38.079Z,86.9
2017-10-03T13:24:37.260Z,87.1
2017-10-03T13:25:36.566Z,85.3
2017-10-03T13:26:36.002Z,85.7
2017-10-03T13:27:35.055Z,86.6
2017-10-03T13:28:34.494Z,86.5
2017-10-03T13:29:33.418Z,84.4
2017-10-03T13:30:32.724Z,83.4
2017-10-03T13:31:31.526Z,83.7
2017-10-03T13:32:30.969Z,82.7
2017-10-03T13:33:30.272Z,81.9
2017-10-03T13:34:29.575Z,80.9
2017-10-03T13:35:29.005Z,81.1
2017-10-03T13:36:28.069Z,80.7
2017-10-03T13:37:27.250Z,80.2
2017-10-03T13:38:26.553Z,78
2017-10-03T13:39:25.739Z,78.7
2017-10-03T13:41:24.555Z,78.8
2017-10-03T13:42:23.359Z,79.6
2017-10-03T13:44:21.925Z,80.6
2017-10-03T13:45:20.848Z,80.6
2017-10-03T13:46:20.155Z,79.4
2017-10-03T13:48:18.847Z,80.6
2017-10-03T13:49:18.270Z,81.4
2017-10-03T13:50:17.452Z,81.5
2017-10-03T13:51:16.769Z,82.3
2017-10-03T13:52:15.946Z,80.8
2017-10-03T13:53:15.384Z,80.7
2017-10-03T13:54:14.569Z,81.3
2017-10-03T13:55:13.746Z,80.7
2017-10-03T13:56:13.177Z,80
2017-10-03T13:57:12.358Z,79.6
2017-10-03T13:58:11.293Z,79.6
2017-10-03T14:00:09.979Z,79.3
2017-10-03T14:01:08.789Z,78.8
2017-10-03T14:02:08.222Z,79
2017-10-03T14:03:07.534Z,79.5